sensor_id;sensor_type;location;lat;lon;timestamp;temperature;humidity
21335;DHT22;69435;52.670;13.544;2023-05-10T00:00:39;13.20;42.80
21335;DHT22;69435;52.670;13.544;2023-05-10T00:03:26;13.20;43.10
21335;DHT22;69435;52.670;13.544;2023-05-10T00:06:12;13.20;43.10
21335;DHT22;69435;52.670;13.544;2023-05-10T00:08:58;13.10;43.30
21335;DHT22;69435;52.670;13.544;2023-05-10T00:11:44;13.10;43.20
21335;DHT22;69435;52.670;13.544;2023-05-10T00:14:30;13.10;43.60
21335;DHT22;69435;52.670;13.544;2023-05-10T00:17:16;13.10;43.60
21335;DHT22;69435;52.670;13.544;2023-05-10T00:20:02;13.00;43.60
21335;DHT22;69435;52.670;13.544;2023-05-10T00:22:50;13.00;44.00
21335;DHT22;69435;52.670;13.544;2023-05-10T00:25:36;12.90;44.20
21335;DHT22;69435;52.670;13.544;2023-05-10T00:28:22;12.90;44.20
21335;DHT22;69435;52.670;13.544;2023-05-10T00:31:08;12.90;44.60
21335;DHT22;69435;52.670;13.544;2023-05-10T00:33:55;12.80;44.30
21335;DHT22;69435;52.670;13.544;2023-05-10T00:36:41;12.80;44.30
21335;DHT22;69435;52.670;13.544;2023-05-10T00:39:27;12.80;44.60
21335;DHT22;69435;52.670;13.544;2023-05-10T00:42:14;12.80;44.70
21335;DHT22;69435;52.670;13.544;2023-05-10T00:45:00;12.70;44.90
21335;DHT22;69435;52.670;13.544;2023-05-10T00:47:46;12.70;44.90
21335;DHT22;69435;52.670;13.544;2023-05-10T00:50:33;12.70;45.10
21335;DHT22;69435;52.670;13.544;2023-05-10T00:53:19;12.60;45.20
21335;DHT22;69435;52.670;13.544;2023-05-10T00:56:05;12.50;45.50
21335;DHT22;69435;52.670;13.544;2023-05-10T00:58:51;12.50;45.60
21335;DHT22;69435;52.670;13.544;2023-05-10T01:01:38;12.50;45.60
21335;DHT22;69435;52.670;13.544;2023-05-10T01:04:24;12.50;45.90
21335;DHT22;69435;52.670;13.544;2023-05-10T01:07:14;12.40;45.70
21335;DHT22;69435;52.670;13.544;2023-05-10T01:09:59;12.40;46.00
21335;DHT22;69435;52.670;13.544;2023-05-10T01:12:46;12.40;46.10
21335;DHT22;69435;52.670;13.544;2023-05-10T01:15:33;12.40;46.20
21335;DHT22;69435;52.670;13.544;2023-05-10T01:18:20;12.30;46.10
21335;DHT22;69435;52.670;13.544;2023-05-10T01:21:37;12.30;46.30
21335;DHT22;69435;52.670;13.544;2023-05-10T01:24:51;12.30;46.70
21335;DHT22;69435;52.670;13.544;2023-05-10T01:27:55;12.30;46.50
21335;DHT22;69435;52.670;13.544;2023-05-10T01:34:25;12.20;46.30
21335;DHT22;69435;52.670;13.544;2023-05-10T01:37:24;12.20;46.50
21335;DHT22;69435;52.670;13.544;2023-05-10T01:40:28;12.20;47.50
21335;DHT22;69435;52.670;13.544;2023-05-10T01:43:22;12.20;46.50
21335;DHT22;69435;52.670;13.544;2023-05-10T01:46:17;12.20;46.60
21335;DHT22;69435;52.670;13.544;2023-05-10T01:49:20;12.10;46.70
21335;DHT22;69435;52.670;13.544;2023-05-10T01:52:12;12.10;46.70
21335;DHT22;69435;52.670;13.544;2023-05-10T01:55:15;12.10;47.00
21335;DHT22;69435;52.670;13.544;2023-05-10T01:58:08;12.10;46.80
21335;DHT22;69435;52.670;13.544;2023-05-10T02:01:01;12.00;46.60
21335;DHT22;69435;52.670;13.544;2023-05-10T02:03:51;12.00;46.70
21335;DHT22;69435;52.670;13.544;2023-05-10T02:06:38;12.00;46.80
21335;DHT22;69435;52.670;13.544;2023-05-10T02:09:27;12.00;46.90
21335;DHT22;69435;52.670;13.544;2023-05-10T02:12:16;12.00;46.70
21335;DHT22;69435;52.670;13.544;2023-05-10T02:15:05;12.00;46.80
21335;DHT22;69435;52.670;13.544;2023-05-10T02:17:55;12.00;46.70
21335;DHT22;69435;52.670;13.544;2023-05-10T02:20:45;11.90;46.80
21335;DHT22;69435;52.670;13.544;2023-05-10T02:23:33;11.90;46.80
21335;DHT22;69435;52.670;13.544;2023-05-10T02:26:21;11.90;46.80
21335;DHT22;69435;52.670;13.544;2023-05-10T02:29:11;11.90;46.70
21335;DHT22;69435;52.670;13.544;2023-05-10T02:31:59;11.90;47.00
21335;DHT22;69435;52.670;13.544;2023-05-10T02:34:46;11.90;46.80
21335;DHT22;69435;52.670;13.544;2023-05-10T02:37:37;11.80;46.90
21335;DHT22;69435;52.670;13.544;2023-05-10T02:40:25;11.80;46.70
21335;DHT22;69435;52.670;13.544;2023-05-10T02:43:15;11.90;47.10
21335;DHT22;69435;52.670;13.544;2023-05-10T02:46:03;11.80;46.90
21335;DHT22;69435;52.670;13.544;2023-05-10T02:48:50;11.80;46.80
21335;DHT22;69435;52.670;13.544;2023-05-10T02:51:39;11.80;47.10
21335;DHT22;69435;52.670;13.544;2023-05-10T02:54:32;11.80;47.20
21335;DHT22;69435;52.670;13.544;2023-05-10T02:57:31;11.80;46.90
21335;DHT22;69435;52.670;13.544;2023-05-10T03:00:19;11.80;46.90
21335;DHT22;69435;52.670;13.544;2023-05-10T03:03:06;11.70;47.00
21335;DHT22;69435;52.670;13.544;2023-05-10T03:05:52;11.70;47.70
21335;DHT22;69435;52.670;13.544;2023-05-10T03:08:42;11.70;47.10
21335;DHT22;69435;52.670;13.544;2023-05-10T03:11:49;11.60;46.80
21335;DHT22;69435;52.670;13.544;2023-05-10T03:15:17;11.70;47.00
21335;DHT22;69435;52.670;13.544;2023-05-10T03:18:34;11.70;47.00
21335;DHT22;69435;52.670;13.544;2023-05-10T03:21:29;11.70;47.30
21335;DHT22;69435;52.670;13.544;2023-05-10T03:24:21;11.60;47.10
21335;DHT22;69435;52.670;13.544;2023-05-10T03:27:08;11.60;47.10
21335;DHT22;69435;52.670;13.544;2023-05-10T03:29:56;11.60;47.20
21335;DHT22;69435;52.670;13.544;2023-05-10T03:32:43;11.60;47.10
21335;DHT22;69435;52.670;13.544;2023-05-10T03:35:29;11.50;46.90
21335;DHT22;69435;52.670;13.544;2023-05-10T03:38:15;11.60;46.80
21335;DHT22;69435;52.670;13.544;2023-05-10T03:41:01;11.60;47.00
21335;DHT22;69435;52.670;13.544;2023-05-10T03:43:47;11.50;47.10
21335;DHT22;69435;52.670;13.544;2023-05-10T03:46:33;11.50;47.20
21335;DHT22;69435;52.670;13.544;2023-05-10T03:49:19;11.50;47.40
21335;DHT22;69435;52.670;13.544;2023-05-10T03:52:04;11.50;47.50
21335;DHT22;69435;52.670;13.544;2023-05-10T03:54:50;11.50;47.60
21335;DHT22;69435;52.670;13.544;2023-05-10T03:57:36;11.50;47.40
21335;DHT22;69435;52.670;13.544;2023-05-10T04:00:22;11.50;47.50
21335;DHT22;69435;52.670;13.544;2023-05-10T04:03:09;11.50;47.50
21335;DHT22;69435;52.670;13.544;2023-05-10T04:06:01;11.50;47.60
21335;DHT22;69435;52.670;13.544;2023-05-10T04:08:48;11.50;47.50
21335;DHT22;69435;52.670;13.544;2023-05-10T04:11:34;11.60;47.50
21335;DHT22;69435;52.670;13.544;2023-05-10T04:14:20;11.50;47.50
21335;DHT22;69435;52.670;13.544;2023-05-10T04:17:06;11.60;47.60
21335;DHT22;69435;52.670;13.544;2023-05-10T04:19:52;11.60;47.70
21335;DHT22;69435;52.670;13.544;2023-05-10T04:22:40;11.60;47.30
21335;DHT22;69435;52.670;13.544;2023-05-10T04:25:26;11.70;47.20
21335;DHT22;69435;52.670;13.544;2023-05-10T04:28:12;11.80;47.20
21335;DHT22;69435;52.670;13.544;2023-05-10T04:31:05;11.80;47.30
21335;DHT22;69435;52.670;13.544;2023-05-10T04:33:53;11.90;46.90
21335;DHT22;69435;52.670;13.544;2023-05-10T04:36:39;12.00;46.90
21335;DHT22;69435;52.670;13.544;2023-05-10T04:39:25;12.00;46.60
21335;DHT22;69435;52.670;13.544;2023-05-10T04:42:11;12.10;46.50
21335;DHT22;69435;52.670;13.544;2023-05-10T04:44:57;12.10;46.50
21335;DHT22;69435;52.670;13.544;2023-05-10T04:47:43;12.20;46.50
21335;DHT22;69435;52.670;13.544;2023-05-10T04:50:29;12.30;46.30
21335;DHT22;69435;52.670;13.544;2023-05-10T04:53:15;12.40;46.10
21335;DHT22;69435;52.670;13.544;2023-05-10T04:56:01;12.50;45.90
21335;DHT22;69435;52.670;13.544;2023-05-10T04:58:47;12.60;46.10
21335;DHT22;69435;52.670;13.544;2023-05-10T05:01:33;12.60;45.70
21335;DHT22;69435;52.670;13.544;2023-05-10T05:04:19;12.70;45.30
21335;DHT22;69435;52.670;13.544;2023-05-10T05:07:04;12.80;45.40
21335;DHT22;69435;52.670;13.544;2023-05-10T05:09:50;12.90;45.30
21335;DHT22;69435;52.670;13.544;2023-05-10T05:12:36;13.00;45.00
21335;DHT22;69435;52.670;13.544;2023-05-10T05:15:22;13.10;44.80
21335;DHT22;69435;52.670;13.544;2023-05-10T05:18:09;13.10;45.60
21335;DHT22;69435;52.670;13.544;2023-05-10T05:20:55;13.30;44.70
21335;DHT22;69435;52.670;13.544;2023-05-10T05:23:41;13.40;44.30
21335;DHT22;69435;52.670;13.544;2023-05-10T05:26:27;13.50;44.70
21335;DHT22;69435;52.670;13.544;2023-05-10T05:29:13;13.70;43.90
21335;DHT22;69435;52.670;13.544;2023-05-10T05:32:00;13.90;43.40
21335;DHT22;69435;52.670;13.544;2023-05-10T05:34:46;14.10;43.20
21335;DHT22;69435;52.670;13.544;2023-05-10T05:37:32;14.30;42.70
21335;DHT22;69435;52.670;13.544;2023-05-10T05:40:18;14.40;42.10
21335;DHT22;69435;52.670;13.544;2023-05-10T05:43:06;14.50;42.00
21335;DHT22;69435;52.670;13.544;2023-05-10T05:45:52;14.70;42.40
21335;DHT22;69435;52.670;13.544;2023-05-10T05:48:39;14.80;41.60
21335;DHT22;69435;52.670;13.544;2023-05-10T05:51:26;14.80;41.30
21335;DHT22;69435;52.670;13.544;2023-05-10T05:54:11;14.90;41.00
21335;DHT22;69435;52.670;13.544;2023-05-10T05:56:58;15.00;41.00
21335;DHT22;69435;52.670;13.544;2023-05-10T05:59:45;15.10;40.90
21335;DHT22;69435;52.670;13.544;2023-05-10T06:02:31;15.20;40.40
21335;DHT22;69435;52.670;13.544;2023-05-10T06:05:17;15.20;41.00
21335;DHT22;69435;52.670;13.544;2023-05-10T06:08:03;15.30;40.90
21335;DHT22;69435;52.670;13.544;2023-05-10T06:10:50;15.40;40.30
21335;DHT22;69435;52.670;13.544;2023-05-10T06:13:36;15.50;40.10
21335;DHT22;69435;52.670;13.544;2023-05-10T06:16:22;15.60;40.20
21335;DHT22;69435;52.670;13.544;2023-05-10T06:19:09;15.70;40.80
21335;DHT22;69435;52.670;13.544;2023-05-10T06:21:55;15.90;39.10
21335;DHT22;69435;52.670;13.544;2023-05-10T06:24:41;15.90;39.70
21335;DHT22;69435;52.670;13.544;2023-05-10T06:27:27;16.00;39.70
21335;DHT22;69435;52.670;13.544;2023-05-10T06:30:13;16.10;39.20
21335;DHT22;69435;52.670;13.544;2023-05-10T06:33:00;16.20;39.50
21335;DHT22;69435;52.670;13.544;2023-05-10T06:35:46;16.20;38.90
21335;DHT22;69435;52.670;13.544;2023-05-10T06:38:32;16.30;39.10
21335;DHT22;69435;52.670;13.544;2023-05-10T06:41:18;16.40;39.10
21335;DHT22;69435;52.670;13.544;2023-05-10T06:44:04;16.60;39.30
21335;DHT22;69435;52.670;13.544;2023-05-10T06:46:50;16.70;38.50
21335;DHT22;69435;52.670;13.544;2023-05-10T06:49:38;16.80;38.60
21335;DHT22;69435;52.670;13.544;2023-05-10T06:52:23;16.80;38.40
21335;DHT22;69435;52.670;13.544;2023-05-10T06:55:10;17.00;39.40
21335;DHT22;69435;52.670;13.544;2023-05-10T06:57:56;17.10;38.00
21335;DHT22;69435;52.670;13.544;2023-05-10T07:00:42;17.20;37.60
21335;DHT22;69435;52.670;13.544;2023-05-10T07:03:29;17.20;37.30
21335;DHT22;69435;52.670;13.544;2023-05-10T07:06:15;17.30;37.50
21335;DHT22;69435;52.670;13.544;2023-05-10T07:09:01;17.30;37.50
21335;DHT22;69435;52.670;13.544;2023-05-10T07:11:47;17.40;37.70
21335;DHT22;69435;52.670;13.544;2023-05-10T07:14:33;17.40;37.00
21335;DHT22;69435;52.670;13.544;2023-05-10T07:17:19;17.60;37.70
21335;DHT22;69435;52.670;13.544;2023-05-10T07:20:07;17.90;37.00
21335;DHT22;69435;52.670;13.544;2023-05-10T07:22:54;18.60;37.00
21335;DHT22;69435;52.670;13.544;2023-05-10T07:25:40;19.50;36.10
21335;DHT22;69435;52.670;13.544;2023-05-10T07:28:26;20.60;34.50
21335;DHT22;69435;52.670;13.544;2023-05-10T07:31:14;21.80;33.20
21335;DHT22;69435;52.670;13.544;2023-05-10T07:34:00;23.00;32.10
21335;DHT22;69435;52.670;13.544;2023-05-10T07:36:46;23.90;29.30
21335;DHT22;69435;52.670;13.544;2023-05-10T07:39:32;24.60;27.50
21335;DHT22;69435;52.670;13.544;2023-05-10T07:42:18;25.00;27.40
21335;DHT22;69435;52.670;13.544;2023-05-10T07:45:04;25.50;27.10
21335;DHT22;69435;52.670;13.544;2023-05-10T07:47:51;26.00;26.50
21335;DHT22;69435;52.670;13.544;2023-05-10T07:50:37;26.60;25.40
21335;DHT22;69435;52.670;13.544;2023-05-10T07:53:23;26.90;24.70
21335;DHT22;69435;52.670;13.544;2023-05-10T07:56:30;26.90;25.20
21335;DHT22;69435;52.670;13.544;2023-05-10T07:59:17;27.10;25.00
21335;DHT22;69435;52.670;13.544;2023-05-10T08:02:03;27.30;23.60
21335;DHT22;69435;52.670;13.544;2023-05-10T08:04:49;27.30;23.60
21335;DHT22;69435;52.670;13.544;2023-05-10T08:07:35;27.40;24.10
21335;DHT22;69435;52.670;13.544;2023-05-10T08:10:22;27.70;23.50
21335;DHT22;69435;52.670;13.544;2023-05-10T08:13:10;28.20;23.00
21335;DHT22;69435;52.670;13.544;2023-05-10T08:15:58;28.70;22.60
21335;DHT22;69435;52.670;13.544;2023-05-10T08:18:45;29.20;22.60
21335;DHT22;69435;52.670;13.544;2023-05-10T08:21:32;29.60;21.90
21335;DHT22;69435;52.670;13.544;2023-05-10T08:24:18;29.70;21.20
21335;DHT22;69435;52.670;13.544;2023-05-10T08:27:05;30.00;21.50
21335;DHT22;69435;52.670;13.544;2023-05-10T08:29:51;30.20;21.50
21335;DHT22;69435;52.670;13.544;2023-05-10T08:32:37;30.10;20.60
21335;DHT22;69435;52.670;13.544;2023-05-10T08:35:23;29.80;20.80
21335;DHT22;69435;52.670;13.544;2023-05-10T08:38:10;29.60;21.10
21335;DHT22;69435;52.670;13.544;2023-05-10T08:40:56;29.70;21.90
21335;DHT22;69435;52.670;13.544;2023-05-10T08:43:43;29.80;21.30
21335;DHT22;69435;52.670;13.544;2023-05-10T08:46:33;29.80;22.30
21335;DHT22;69435;52.670;13.544;2023-05-10T08:49:23;29.90;20.90
21335;DHT22;69435;52.670;13.544;2023-05-10T08:52:13;30.00;22.50
21335;DHT22;69435;52.670;13.544;2023-05-10T08:55:01;29.90;20.40
21335;DHT22;69435;52.670;13.544;2023-05-10T08:57:47;29.90;20.20
21335;DHT22;69435;52.670;13.544;2023-05-10T09:00:34;29.70;20.70
21335;DHT22;69435;52.670;13.544;2023-05-10T09:03:20;29.40;20.80
21335;DHT22;69435;52.670;13.544;2023-05-10T09:06:06;29.30;21.10
21335;DHT22;69435;52.670;13.544;2023-05-10T09:08:53;29.30;22.10
21335;DHT22;69435;52.670;13.544;2023-05-10T09:11:39;29.20;21.60
21335;DHT22;69435;52.670;13.544;2023-05-10T09:14:25;29.30;21.10
21335;DHT22;69435;52.670;13.544;2023-05-10T09:17:12;29.30;21.50
21335;DHT22;69435;52.670;13.544;2023-05-10T09:19:59;29.30;21.80
21335;DHT22;69435;52.670;13.544;2023-05-10T09:22:46;29.30;22.10
21335;DHT22;69435;52.670;13.544;2023-05-10T09:25:33;29.50;23.20
21335;DHT22;69435;52.670;13.544;2023-05-10T09:28:22;29.80;22.30
21335;DHT22;69435;52.670;13.544;2023-05-10T09:31:08;30.10;21.20
21335;DHT22;69435;52.670;13.544;2023-05-10T09:33:54;30.30;20.90
21335;DHT22;69435;52.670;13.544;2023-05-10T09:36:54;30.50;21.60
21335;DHT22;69435;52.670;13.544;2023-05-10T09:39:46;30.50;20.40
21335;DHT22;69435;52.670;13.544;2023-05-10T09:42:32;30.20;20.00
21335;DHT22;69435;52.670;13.544;2023-05-10T09:45:19;29.90;20.80
21335;DHT22;69435;52.670;13.544;2023-05-10T09:48:07;29.70;21.60
21335;DHT22;69435;52.670;13.544;2023-05-10T09:50:57;29.50;21.60
21335;DHT22;69435;52.670;13.544;2023-05-10T09:53:43;29.40;22.20
21335;DHT22;69435;52.670;13.544;2023-05-10T09:56:36;29.30;22.10
21335;DHT22;69435;52.670;13.544;2023-05-10T09:59:28;29.60;21.70
21335;DHT22;69435;52.670;13.544;2023-05-10T10:02:14;29.80;22.10
21335;DHT22;69435;52.670;13.544;2023-05-10T10:05:01;30.00;22.80
21335;DHT22;69435;52.670;13.544;2023-05-10T10:07:51;30.20;22.30
21335;DHT22;69435;52.670;13.544;2023-05-10T10:10:38;30.20;21.50
21335;DHT22;69435;52.670;13.544;2023-05-10T10:13:25;30.30;21.50
21335;DHT22;69435;52.670;13.544;2023-05-10T10:16:11;30.30;21.20
21335;DHT22;69435;52.670;13.544;2023-05-10T10:18:58;30.50;20.70
21335;DHT22;69435;52.670;13.544;2023-05-10T10:21:44;30.60;20.80
21335;DHT22;69435;52.670;13.544;2023-05-10T10:24:30;30.60;20.50
21335;DHT22;69435;52.670;13.544;2023-05-10T10:30:43;30.30;21.60
21335;DHT22;69435;52.670;13.544;2023-05-10T10:33:59;30.20;22.00
21335;DHT22;69435;52.670;13.544;2023-05-10T10:36:49;30.20;20.80
21335;DHT22;69435;52.670;13.544;2023-05-10T10:39:35;30.00;21.40
21335;DHT22;69435;52.670;13.544;2023-05-10T10:42:44;30.00;21.50
21335;DHT22;69435;52.670;13.544;2023-05-10T10:45:39;30.10;22.50
21335;DHT22;69435;52.670;13.544;2023-05-10T10:48:26;30.00;21.20
21335;DHT22;69435;52.670;13.544;2023-05-10T10:51:13;29.90;21.40
21335;DHT22;69435;52.670;13.544;2023-05-10T10:54:11;30.00;22.60
21335;DHT22;69435;52.670;13.544;2023-05-10T10:57:11;30.00;22.60
21335;DHT22;69435;52.670;13.544;2023-05-10T11:00:25;30.00;21.80
21335;DHT22;69435;52.670;13.544;2023-05-10T11:03:13;30.00;22.00
21335;DHT22;69435;52.670;13.544;2023-05-10T11:06:07;30.00;22.70
21335;DHT22;69435;52.670;13.544;2023-05-10T11:08:54;30.00;23.70
21335;DHT22;69435;52.670;13.544;2023-05-10T11:11:53;29.80;21.90
21335;DHT22;69435;52.670;13.544;2023-05-10T11:14:50;29.70;22.20
21335;DHT22;69435;52.670;13.544;2023-05-10T11:17:36;29.60;23.10
21335;DHT22;69435;52.670;13.544;2023-05-10T11:20:22;29.60;22.70
21335;DHT22;69435;52.670;13.544;2023-05-10T11:23:12;29.60;23.50
21335;DHT22;69435;52.670;13.544;2023-05-10T11:26:01;29.60;21.40
21335;DHT22;69435;52.670;13.544;2023-05-10T11:28:48;29.50;21.80
21335;DHT22;69435;52.670;13.544;2023-05-10T11:31:34;29.50;21.50
21335;DHT22;69435;52.670;13.544;2023-05-10T11:34:29;29.40;22.00
21335;DHT22;69435;52.670;13.544;2023-05-10T11:37:18;29.40;22.40
21335;DHT22;69435;52.670;13.544;2023-05-10T11:40:04;29.40;22.60
21335;DHT22;69435;52.670;13.544;2023-05-10T11:42:50;29.30;21.20
21335;DHT22;69435;52.670;13.544;2023-05-10T11:45:37;29.30;22.40
21335;DHT22;69435;52.670;13.544;2023-05-10T11:48:24;29.30;22.40
21335;DHT22;69435;52.670;13.544;2023-05-10T11:51:10;29.30;21.90
21335;DHT22;69435;52.670;13.544;2023-05-10T11:53:57;29.20;23.10
21335;DHT22;69435;52.670;13.544;2023-05-10T11:56:43;29.10;21.90
21335;DHT22;69435;52.670;13.544;2023-05-10T11:59:29;28.90;21.40
21335;DHT22;69435;52.670;13.544;2023-05-10T12:02:15;28.80;22.80
21335;DHT22;69435;52.670;13.544;2023-05-10T12:05:02;28.60;22.00
21335;DHT22;69435;52.670;13.544;2023-05-10T12:07:50;28.40;21.80
21335;DHT22;69435;52.670;13.544;2023-05-10T12:10:36;28.10;21.70
21335;DHT22;69435;52.670;13.544;2023-05-10T12:13:22;28.00;23.90
21335;DHT22;69435;52.670;13.544;2023-05-10T12:16:20;28.00;24.20
21335;DHT22;69435;52.670;13.544;2023-05-10T12:19:09;28.00;24.40
21335;DHT22;69435;52.670;13.544;2023-05-10T12:21:55;27.90;23.30
21335;DHT22;69435;52.670;13.544;2023-05-10T12:24:41;27.90;23.90
21335;DHT22;69435;52.670;13.544;2023-05-10T12:27:32;28.00;24.90
21335;DHT22;69435;52.670;13.544;2023-05-10T12:30:25;28.20;23.90
21335;DHT22;69435;52.670;13.544;2023-05-10T12:33:13;28.20;23.90
21335;DHT22;69435;52.670;13.544;2023-05-10T12:36:02;28.00;23.60
21335;DHT22;69435;52.670;13.544;2023-05-10T12:38:49;28.00;24.90
21335;DHT22;69435;52.670;13.544;2023-05-10T12:41:35;28.00;24.50
21335;DHT22;69435;52.670;13.544;2023-05-10T12:44:21;27.90;22.90
21335;DHT22;69435;52.670;13.544;2023-05-10T12:47:07;27.90;24.90
21335;DHT22;69435;52.670;13.544;2023-05-10T12:49:53;27.90;24.70
21335;DHT22;69435;52.670;13.544;2023-05-10T12:52:39;28.10;25.80
21335;DHT22;69435;52.670;13.544;2023-05-10T12:55:25;28.20;24.20
21335;DHT22;69435;52.670;13.544;2023-05-10T12:58:11;28.20;23.80
21335;DHT22;69435;52.670;13.544;2023-05-10T13:00:58;28.10;23.50
21335;DHT22;69435;52.670;13.544;2023-05-10T13:03:45;28.10;23.40
21335;DHT22;69435;52.670;13.544;2023-05-10T13:06:31;28.00;23.30
21335;DHT22;69435;52.670;13.544;2023-05-10T13:09:17;28.00;23.60
21335;DHT22;69435;52.670;13.544;2023-05-10T13:12:03;27.90;23.10
21335;DHT22;69435;52.670;13.544;2023-05-10T13:14:49;27.90;23.40
21335;DHT22;69435;52.670;13.544;2023-05-10T13:17:35;27.90;23.90
21335;DHT22;69435;52.670;13.544;2023-05-10T13:20:21;28.00;24.50
21335;DHT22;69435;52.670;13.544;2023-05-10T13:23:07;28.10;22.80
21335;DHT22;69435;52.670;13.544;2023-05-10T13:25:53;28.10;24.50
21335;DHT22;69435;52.670;13.544;2023-05-10T13:28:39;28.10;23.70
21335;DHT22;69435;52.670;13.544;2023-05-10T13:31:26;28.10;23.10
21335;DHT22;69435;52.670;13.544;2023-05-10T13:34:12;28.00;22.40
21335;DHT22;69435;52.670;13.544;2023-05-10T13:36:58;28.00;23.00
21335;DHT22;69435;52.670;13.544;2023-05-10T13:39:44;27.90;22.10
21335;DHT22;69435;52.670;13.544;2023-05-10T13:42:29;27.80;24.00
21335;DHT22;69435;52.670;13.544;2023-05-10T13:45:17;27.80;23.10
21335;DHT22;69435;52.670;13.544;2023-05-10T13:48:03;27.80;22.30
21335;DHT22;69435;52.670;13.544;2023-05-10T13:50:49;27.80;23.50
21335;DHT22;69435;52.670;13.544;2023-05-10T13:53:35;27.70;23.10
21335;DHT22;69435;52.670;13.544;2023-05-10T13:56:22;27.60;22.40
21335;DHT22;69435;52.670;13.544;2023-05-10T13:59:07;27.60;23.10
21335;DHT22;69435;52.670;13.544;2023-05-10T14:01:53;27.60;23.20
21335;DHT22;69435;52.670;13.544;2023-05-10T14:04:39;27.60;23.60
21335;DHT22;69435;52.670;13.544;2023-05-10T14:07:25;27.60;23.10
21335;DHT22;69435;52.670;13.544;2023-05-10T14:10:11;27.50;23.10
21335;DHT22;69435;52.670;13.544;2023-05-10T14:12:59;27.40;23.40
21335;DHT22;69435;52.670;13.544;2023-05-10T14:15:46;27.40;22.30
21335;DHT22;69435;52.670;13.544;2023-05-10T14:18:31;27.30;23.10
21335;DHT22;69435;52.670;13.544;2023-05-10T14:21:18;27.30;22.60
21335;DHT22;69435;52.670;13.544;2023-05-10T14:24:04;27.30;21.90
21335;DHT22;69435;52.670;13.544;2023-05-10T14:26:52;27.10;21.70
21335;DHT22;69435;52.670;13.544;2023-05-10T14:29:39;26.90;21.70
21335;DHT22;69435;52.670;13.544;2023-05-10T14:32:25;26.70;21.70
21335;DHT22;69435;52.670;13.544;2023-05-10T14:35:15;26.60;21.70
21335;DHT22;69435;52.670;13.544;2023-05-10T14:38:04;26.50;22.10
21335;DHT22;69435;52.670;13.544;2023-05-10T14:40:50;26.40;22.10
21335;DHT22;69435;52.670;13.544;2023-05-10T14:43:36;26.30;23.20
21335;DHT22;69435;52.670;13.544;2023-05-10T14:46:22;26.20;22.90
21335;DHT22;69435;52.670;13.544;2023-05-10T14:49:09;26.10;23.00
21335;DHT22;69435;52.670;13.544;2023-05-10T14:51:55;25.90;22.60
21335;DHT22;69435;52.670;13.544;2023-05-10T14:54:41;25.80;22.30
21335;DHT22;69435;52.670;13.544;2023-05-10T14:57:27;25.80;22.60
21335;DHT22;69435;52.670;13.544;2023-05-10T15:00:15;25.80;22.70
21335;DHT22;69435;52.670;13.544;2023-05-10T15:03:01;25.80;23.10
21335;DHT22;69435;52.670;13.544;2023-05-10T15:05:48;25.80;23.40
21335;DHT22;69435;52.670;13.544;2023-05-10T15:08:34;25.90;22.20
21335;DHT22;69435;52.670;13.544;2023-05-10T15:11:20;25.80;22.60
21335;DHT22;69435;52.670;13.544;2023-05-10T15:14:06;25.70;23.00
21335;DHT22;69435;52.670;13.544;2023-05-10T15:16:52;25.70;22.20
21335;DHT22;69435;52.670;13.544;2023-05-10T15:19:38;25.70;22.10
21335;DHT22;69435;52.670;13.544;2023-05-10T15:22:24;25.70;22.50
21335;DHT22;69435;52.670;13.544;2023-05-10T15:25:10;25.70;21.90
21335;DHT22;69435;52.670;13.544;2023-05-10T15:27:55;25.70;22.60
21335;DHT22;69435;52.670;13.544;2023-05-10T15:30:41;25.70;22.60
21335;DHT22;69435;52.670;13.544;2023-05-10T15:33:27;25.80;22.80
21335;DHT22;69435;52.670;13.544;2023-05-10T15:36:14;25.80;22.30
21335;DHT22;69435;52.670;13.544;2023-05-10T15:39:00;25.80;22.60
21335;DHT22;69435;52.670;13.544;2023-05-10T15:41:46;25.70;21.80
21335;DHT22;69435;52.670;13.544;2023-05-10T15:44:32;25.70;22.60
21335;DHT22;69435;52.670;13.544;2023-05-10T15:47:20;25.70;22.50
21335;DHT22;69435;52.670;13.544;2023-05-10T15:50:07;25.50;22.40
21335;DHT22;69435;52.670;13.544;2023-05-10T15:52:54;25.50;22.00
21335;DHT22;69435;52.670;13.544;2023-05-10T15:55:43;25.40;22.40
21335;DHT22;69435;52.670;13.544;2023-05-10T15:58:29;25.40;21.40
21335;DHT22;69435;52.670;13.544;2023-05-10T16:01:15;25.40;21.60
21335;DHT22;69435;52.670;13.544;2023-05-10T16:04:02;25.30;22.00
21335;DHT22;69435;52.670;13.544;2023-05-10T16:06:48;25.30;21.80
21335;DHT22;69435;52.670;13.544;2023-05-10T16:09:33;25.20;22.30
21335;DHT22;69435;52.670;13.544;2023-05-10T16:12:20;25.10;22.60
21335;DHT22;69435;52.670;13.544;2023-05-10T16:15:07;25.10;22.80
21335;DHT22;69435;52.670;13.544;2023-05-10T16:17:53;25.10;22.40
21335;DHT22;69435;52.670;13.544;2023-05-10T16:20:39;25.00;22.50
21335;DHT22;69435;52.670;13.544;2023-05-10T16:23:25;25.00;23.20
21335;DHT22;69435;52.670;13.544;2023-05-10T16:26:12;25.00;23.30
21335;DHT22;69435;52.670;13.544;2023-05-10T16:28:58;24.90;23.10
21335;DHT22;69435;52.670;13.544;2023-05-10T16:31:44;24.90;23.80
21335;DHT22;69435;52.670;13.544;2023-05-10T16:34:33;24.90;23.00
21335;DHT22;69435;52.670;13.544;2023-05-10T16:37:18;24.80;22.70
21335;DHT22;69435;52.670;13.544;2023-05-10T16:40:06;24.70;23.00
21335;DHT22;69435;52.670;13.544;2023-05-10T16:42:52;24.60;23.60
21335;DHT22;69435;52.670;13.544;2023-05-10T16:45:38;24.50;23.60
21335;DHT22;69435;52.670;13.544;2023-05-10T16:48:24;24.50;24.00
21335;DHT22;69435;52.670;13.544;2023-05-10T16:51:10;24.50;23.80
21335;DHT22;69435;52.670;13.544;2023-05-10T16:53:57;24.40;24.20
21335;DHT22;69435;52.670;13.544;2023-05-10T16:56:42;24.40;24.70
21335;DHT22;69435;52.670;13.544;2023-05-10T16:59:29;24.50;25.50
21335;DHT22;69435;52.670;13.544;2023-05-10T17:02:18;24.40;25.50
21335;DHT22;69435;52.670;13.544;2023-05-10T17:05:04;24.50;24.80
21335;DHT22;69435;52.670;13.544;2023-05-10T17:07:51;24.50;24.90
21335;DHT22;69435;52.670;13.544;2023-05-10T17:10:40;24.50;25.50
21335;DHT22;69435;52.670;13.544;2023-05-10T17:13:26;24.60;25.30
21335;DHT22;69435;52.670;13.544;2023-05-10T17:16:12;24.70;25.40
21335;DHT22;69435;52.670;13.544;2023-05-10T17:18:58;24.70;25.20
21335;DHT22;69435;52.670;13.544;2023-05-10T17:21:44;24.70;25.20
21335;DHT22;69435;52.670;13.544;2023-05-10T17:24:30;24.70;25.70
21335;DHT22;69435;52.670;13.544;2023-05-10T17:27:17;24.70;26.50
21335;DHT22;69435;52.670;13.544;2023-05-10T17:30:04;24.80;26.40